Аэропорт: Курск-Восточный . Курск

ICAO: UUOK

METAR:
2021-01-27 04:00:00
UUOK 270400Z 20003MPS CAVOK M01/M01 Q1007 R30/890138 NOSIG RMK QFE737/0983
METAR:
Информация по данной станции не доступна